Time;durP1;ratioP1;P1;durP2;ratioP2;P2;SDS_P1;SDS_P2;PMS_P1;PMS_P2;Temp;Humidity;BMP_temperature;BMP_pressure;BME280_temperature;BME280_humidity;BME280_pressure;Samples;Min_cycle;Max_cycle;Signal;HPM_P1;HPM_P2
2022/05/20 00:00:50;;;;;;;;;1.50;1.00;;;;;22.55;46.10;101851.66;2461280;27;45243;-86
2022/05/20 00:02:00;;;;;;;;;2.50;1.00;;;;;22.54;46.49;101852.63;2461447;27;45972;-87
2022/05/20 00:03:11;;;;;;;;;2.75;2.00;;;;;22.54;46.51;101852.63;2461609;27;45229;-87
2022/05/20 00:04:22;;;;;;;;;1.50;1.00;;;;;22.53;46.25;101858.06;2454022;27;48280;-86
2022/05/20 00:05:33;;;;;;;;;2.00;1.00;;;;;22.53;46.66;101852.72;2454428;27;44800;-86
2022/05/20 00:06:43;;;;;;;;;2.00;2.00;;;;;22.49;46.62;101842.19;2453633;27;47272;-86
2022/05/20 00:07:54;;;;;;;;;4.50;2.00;;;;;22.51;47.14;101844.78;2461601;27;44803;-86
2022/05/20 00:09:05;;;;;;;;;2.25;2.00;;;;;22.49;46.22;101846.72;2461147;27;46355;-87
2022/05/20 00:10:17;;;;;;;;;1.50;1.50;;;;;22.48;46.19;101842.31;2462195;27;45440;-86
2022/05/20 00:11:27;;;;;;;;;0.00;0.00;;;;;22.45;46.33;101846.03;2461513;27;45411;-86
2022/05/20 00:12:38;;;;;;;;;2.00;2.00;;;;;22.44;46.55;101847.03;2461813;27;45242;-88
2022/05/20 00:13:49;;;;;;;;;1.50;1.50;;;;;22.44;46.03;101847.03;2460990;27;47159;-88
2022/05/20 00:14:59;;;;;;;;;1.50;1.50;;;;;22.41;46.37;101839.19;2454251;27;45217;-87
2022/05/20 00:16:09;;;;;;;;;2.00;2.00;;;;;22.41;46.90;101841.88;2453565;27;47076;-90
2022/05/20 00:17:20;;;;;;;;;2.00;2.00;;;;;22.42;46.45;101832.84;2461582;27;45248;-90
2022/05/20 00:18:30;;;;;;;;;2.00;2.00;;;;;22.44;46.79;101836.31;2461112;27;47954;-90
2022/05/20 00:19:40;;;;;;;;;1.25;1.25;;;;;22.44;46.84;101830.94;2461373;27;45231;-90
2022/05/20 00:20:51;;;;;;;;;2.00;2.00;;;;;22.45;46.72;101832.66;2462557;27;46237;-89
2022/05/20 00:22:02;;;;;;;;;2.00;2.00;;;;;22.41;46.69;101831.16;2461184;27;45288;-84
2022/05/20 00:23:12;;;;;;;;;2.50;2.00;;;;;22.42;46.80;101832.84;2454010;27;45940;-84
2022/05/20 00:24:23;;;;;;;;;2.75;2.00;;;;;22.43;46.45;101828.34;2454100;27;45350;-84
2022/05/20 00:25:45;;;;;;;;;3.00;2.00;;;;;22.44;46.65;101830.09;2461262;27;45386;-85
2022/05/20 00:26:56;;;;;;;;;4.00;2.00;;;;;22.46;46.88;101829.03;2460476;27;44809;-85
2022/05/20 00:28:07;;;;;;;;;2.00;2.00;;;;;22.48;46.89;101832.47;2460852;27;45412;-85
2022/05/20 00:29:18;;;;;;;;;1.75;1.00;;;;;22.47;46.78;101828.03;2461540;27;45257;-85
2022/05/20 00:30:29;;;;;;;;;2.00;1.25;;;;;22.51;46.44;101833.22;2461734;27;45425;-85
2022/05/20 00:31:39;;;;;;;;;1.75;1.75;;;;;22.50;46.33;101829.66;2461974;27;45314;-85
2022/05/20 00:32:50;;;;;;;;;3.50;2.00;;;;;22.50;46.54;101832.34;2461716;27;45601;-85
2022/05/20 00:34:01;;;;;;;;;2.00;1.00;;;;;22.48;46.54;101829.78;2461864;27;44732;-84
2022/05/20 00:35:13;;;;;;;;;1.75;1.00;;;;;22.48;46.73;101832.47;2460783;27;47366;-85
2022/05/20 00:36:24;;;;;;;;;5.00;2.00;;;;;22.50;46.50;101829.66;2454045;27;45433;-84
2022/05/20 00:37:34;;;;;;;;;1.75;1.75;;;;;22.50;46.03;101835.03;2460941;27;46986;-86
2022/05/20 00:38:46;;;;;;;;;1.50;1.00;;;;;22.49;46.22;101830.63;2461031;27;45389;-86
2022/05/20 00:39:56;;;;;;;;;1.50;1.50;;;;;22.48;45.65;101829.78;2453601;27;47157;-87
2022/05/20 00:41:09;;;;;;;;;1.25;1.25;;;;;22.45;45.87;101827.28;2461185;27;45448;-86
2022/05/20 00:42:19;;;;;;;;;2.00;1.00;;;;;22.44;46.05;101825.59;2460656;27;47284;-87
2022/05/20 00:43:33;;;;;;;;;2.50;1.00;;;;;22.43;45.90;101823.00;2461240;27;45251;-84
2022/05/20 00:44:44;;;;;;;;;2.00;2.00;;;;;22.42;46.13;101830.16;2460584;27;48055;-84
2022/05/20 00:46:00;;;;;;;;;3.00;2.00;;;;;22.40;45.64;101823.22;2453868;27;45358;-85
2022/05/20 00:47:12;;;;;;;;;1.00;1.00;;;;;22.39;45.94;101816.13;2460918;27;46492;-83
2022/05/20 00:48:23;;;;;;;;;2.25;1.00;;;;;22.37;45.93;101818.94;2461477;27;45352;-82
2022/05/20 00:49:35;;;;;;;;;2.50;1.00;;;;;22.36;45.36;101827.91;2461234;27;45429;-84
2022/05/20 00:50:55;;;;;;;;;2.50;2.00;;;;;22.34;46.06;101821.81;2460909;27;45323;-84
2022/05/20 00:52:11;;;;;;;;;1.25;1.25;;;;;22.35;45.46;101826.19;2461244;27;45615;-85
2022/05/20 00:53:26;;;;;;;;;1.25;1.25;;;;;22.33;45.87;101818.25;2460581;27;45246;-85
2022/05/20 00:54:41;;;;;;;;;2.00;2.00;;;;;22.30;45.41;101812.28;2454235;27;46998;-84
2022/05/20 00:55:52;;;;;;;;;2.00;2.00;;;;;22.28;45.18;101814.16;2461165;27;45205;-84
2022/05/20 00:57:16;;;;;;;;;2.00;2.00;;;;;22.29;45.26;101821.25;2460412;27;48379;-85
2022/05/20 00:58:28;;;;;;;;;1.00;1.00;;;;;22.24;45.40;101810.84;2460983;27;45331;-84
2022/05/20 00:59:43;;;;;;;;;3.00;2.00;;;;;22.24;45.48;101818.88;2460168;27;47182;-85
2022/05/20 01:00:55;;;;;;;;;2.00;1.00;;;;;22.23;45.86;101820.69;2461291;27;45329;-86
2022/05/20 01:02:19;;;;;;;;;1.00;1.00;;;;;22.23;45.66;101822.50;2461365;27;45304;-83
2022/05/20 01:03:32;;;;;;;;;2.50;1.00;;;;;22.20;45.65;101815.53;2452009;27;45148;-83
2022/05/20 01:04:43;;;;;;;;;1.00;1.00;;;;;22.21;45.66;101813.72;2459248;27;45511;-83
2022/05/20 01:05:55;;;;;;;;;1.00;1.00;;;;;22.21;45.91;101819.06;2461330;27;45367;-87
2022/05/20 01:07:07;;;;;;;;;1.75;1.75;;;;;22.18;45.38;101809.44;2460518;27;47712;-87
2022/05/20 01:08:21;;;;;;;;;1.00;1.00;;;;;22.20;45.83;101817.38;2461081;27;44683;-86
2022/05/20 01:09:31;;;;;;;;;2.75;2.00;;;;;22.20;45.29;101818.22;2460488;27;47098;-85
2022/05/20 01:10:42;;;;;;;;;2.25;2.25;;;;;22.19;46.21;101813.84;2460830;27;45286;-86
2022/05/20 01:11:52;;;;;;;;;1.00;1.00;;;;;22.19;45.58;101808.47;2453296;27;47207;-86
2022/05/20 01:13:03;;;;;;;;;1.75;1.75;;;;;22.21;45.74;101811.91;2453459;27;44757;-82
2022/05/20 01:14:21;;;;;;;;;1.25;1.00;;;;;22.20;45.45;101807.50;2460544;27;45420;-82
2022/05/20 01:15:32;;;;;;;;;2.00;2.00;;;;;22.20;45.70;101807.50;2451869;27;45168;-82
2022/05/20 01:16:43;;;;;;;;;1.25;1.25;;;;;22.19;45.56;101803.13;2458027;27;47993;-82
2022/05/20 01:17:55;;;;;;;;;2.00;2.00;;;;;22.17;45.26;101791.66;2463679;27;45471;-82
2022/05/20 01:19:10;;;;;;;;;3.00;1.25;;;;;22.14;45.42;101786.50;2467668;27;45379;-81
2022/05/20 01:20:25;;;;;;;;;1.25;1.00;;;;;22.12;45.30;101783.94;2460776;27;44641;-81
2022/05/20 01:21:35;;;;;;;;;3.00;1.00;;;;;22.11;45.69;101776.00;2460641;27;45528;-80
2022/05/20 01:22:53;;;;;;;;;3.00;2.00;;;;;22.10;46.04;101780.47;2460993;27;45285;-81
2022/05/20 01:24:04;;;;;;;;;2.75;1.00;;;;;22.10;45.83;101774.28;2461360;27;45610;-81
2022/05/20 01:25:15;;;;;;;;;1.00;1.00;;;;;22.09;45.88;101777.91;2461101;27;45297;-81
2022/05/20 01:26:25;;;;;;;;;2.00;2.00;;;;;22.09;45.92;101777.91;2461275;27;45455;-84
2022/05/20 01:27:46;;;;;;;;;2.00;2.00;;;;;22.09;45.79;101778.78;2460386;27;45331;-85
2022/05/20 01:28:56;;;;;;;;;2.00;2.00;;;;;22.10;45.81;101779.66;2460722;27;46341;-85
2022/05/20 01:30:07;;;;;;;;;2.50;1.00;;;;;22.10;45.72;101777.81;2460333;27;44688;-84
2022/05/20 01:31:18;;;;;;;;;1.00;1.00;;;;;22.10;45.67;101777.81;2460624;27;46751;-82
2022/05/20 01:32:28;;;;;;;;;1.75;1.75;;;;;22.09;45.40;101769.88;2461439;27;45206;-82
2022/05/20 01:33:42;;;;;;;;;1.00;1.00;;;;;22.09;45.61;101761.84;2460966;27;46175;-82
2022/05/20 01:34:53;;;;;;;;;2.00;2.00;;;;;22.07;45.83;101770.00;2461415;27;45281;-81
2022/05/20 01:36:08;;;;;;;;;2.25;1.50;;;;;22.05;45.03;101763.84;2460891;27;46224;-84
2022/05/20 01:37:18;;;;;;;;;1.00;1.00;;;;;22.07;45.36;101763.78;2461493;27;45236;-82
2022/05/20 01:38:29;;;;;;;;;1.25;1.25;;;;;22.05;45.68;101769.22;2459895;27;46990;-83
2022/05/20 01:39:42;;;;;;;;;2.50;1.00;;;;;22.05;45.68;101763.03;2455040;27;45208;-84
2022/05/20 01:40:58;;;;;;;;;1.00;1.00;;;;;22.04;45.92;101759.47;2462803;27;47603;-83
2022/05/20 01:42:18;;;;;;;;;1.25;1.00;;;;;22.02;45.66;101754.25;2460525;27;45235;-83
2022/05/20 01:43:38;;;;;;;;;2.50;1.25;;;;;22.03;45.54;101760.44;2460369;27;45407;-83
2022/05/20 01:44:57;;;;;;;;;1.75;1.75;;;;;22.01;45.28;101757.00;2460415;27;45188;-83
2022/05/20 01:46:43;;;;;;;;;2.25;1.25;;;;;21.98;45.51;101752.72;2460408;27;45341;-83
2022/05/20 01:48:24;;;;;;;;;2.00;2.00;;;;;21.94;45.19;101748.53;2460987;27;44780;-83
2022/05/20 01:49:50;;;;;;;;;2.00;2.00;;;;;21.94;45.48;101744.97;2451332;27;46451;-83
2022/05/20 01:51:07;;;;;;;;;1.00;1.00;;;;;21.92;45.77;101745.09;2459749;27;44612;-83
2022/05/20 01:52:42;;;;;;;;;3.50;1.00;;;;;21.89;45.31;101750.63;2460319;27;47151;-82
2022/05/20 01:54:00;;;;;;;;;2.00;2.00;;;;;21.89;45.58;101742.63;2460797;27;45245;-82
2022/05/20 01:55:16;;;;;;;;;1.25;1.25;;;;;21.89;45.84;101735.44;2460293;27;47300;-82
2022/05/20 01:56:41;;;;;;;;;2.75;2.00;;;;;21.89;45.58;101735.44;2460728;27;44740;-82
2022/05/20 01:58:19;;;;;;;;;2.50;1.00;;;;;21.90;46.00;101736.31;2460584;27;45419;-81
2022/05/20 01:59:37;;;;;;;;;0.50;0.50;;;;;21.89;45.82;101731.91;2461222;27;45260;-81
2022/05/20 02:00:52;;;;;;;;;1.50;1.50;;;;;21.90;45.79;101733.63;2463254;27;45659;-84
2022/05/20 02:02:13;;;;;;;;;2.00;2.00;;;;;21.89;46.08;101730.09;2470349;27;45275;-83
2022/05/20 02:03:29;;;;;;;;;2.75;1.25;;;;;21.90;46.42;101730.97;2461262;27;45312;-83
2022/05/20 02:04:45;;;;;;;;;1.25;1.25;;;;;21.91;46.29;101738.00;2459949;27;45346;-83
2022/05/20 02:06:05;;;;;;;;;0.00;0.00;;;;;21.92;46.07;101742.41;2460613;27;46277;-84
2022/05/20 02:07:24;;;;;;;;;1.00;1.00;;;;;21.92;46.11;101742.41;2459399;27;45262;-83
2022/05/20 02:08:54;;;;;;;;;1.00;1.00;;;;;21.91;45.93;101738.00;2460629;27;45658;-84
2022/05/20 02:10:13;;;;;;;;;1.75;1.00;;;;;21.90;46.11;101730.97;2461184;27;45324;-82
2022/05/20 02:11:41;;;;;;;;;3.00;1.25;;;;;21.88;46.05;101722.16;2460770;27;45609;-82
2022/05/20 02:12:57;;;;;;;;;3.50;1.25;;;;;21.89;46.09;101729.22;2460935;27;45241;-82
2022/05/20 02:14:35;;;;;;;;;2.00;2.00;;;;;21.88;45.89;101722.16;2460627;27;46364;-82
2022/05/20 02:16:10;;;;;;;;;1.00;1.00;;;;;21.87;45.99;101718.66;2460886;27;45253;-83
2022/05/20 02:17:33;;;;;;;;;2.00;2.00;;;;;21.86;46.05;101711.56;2459699;27;47379;-88
2022/05/20 02:18:59;;;;;;;;;2.25;2.25;;;;;21.84;45.63;101716.13;2455012;27;44705;-87
2022/05/20 02:20:25;;;;;;;;;3.25;1.50;;;;;21.80;45.60;101711.94;2462383;27;45387;-84
2022/05/20 02:21:40;;;;;;;;;1.00;1.00;;;;;21.79;45.63;101711.09;2460280;27;44717;-84
2022/05/20 02:22:56;;;;;;;;;1.00;1.00;;;;;21.78;45.87;101706.69;2460427;27;46680;-84
2022/05/20 02:24:10;;;;;;;;;2.25;1.75;;;;;21.78;45.87;101711.19;2459904;27;45292;-84
2022/05/20 02:25:28;;;;;;;;;2.00;2.00;;;;;21.77;45.83;101712.16;2460363;27;46374;-84
2022/05/20 02:26:49;;;;;;;;;2.00;2.00;;;;;21.73;45.60;101700.75;2460649;27;45473;-84
2022/05/20 02:28:09;;;;;;;;;1.50;1.50;;;;;21.72;45.77;101700.88;2459577;27;46335;-84
2022/05/20 02:29:29;;;;;;;;;1.25;1.25;;;;;21.72;46.03;101703.56;2460725;27;44531;-84
2022/05/20 02:30:41;;;;;;;;;4.50;2.00;;;;;21.70;46.11;101706.34;2460911;27;45452;-84
2022/05/20 02:32:08;;;;;;;;;1.00;1.00;;;;;21.72;46.54;101709.78;2460277;27;44580;-84
2022/05/20 02:33:21;;;;;;;;;1.25;1.25;;;;;21.73;46.13;101707.97;2460059;27;46915;-83
2022/05/20 02:34:34;;;;;;;;;2.00;2.00;;;;;21.72;46.32;101708.91;2460550;27;45306;-84
2022/05/20 02:35:45;;;;;;;;;3.00;2.00;;;;;21.72;46.17;101708.91;2459386;27;47967;-84
2022/05/20 02:36:55;;;;;;;;;2.00;1.00;;;;;21.72;46.11;101706.22;2460453;27;44734;-85
2022/05/20 02:38:12;;;;;;;;;1.00;1.00;;;;;21.71;46.15;101702.69;2460033;27;46976;-85
2022/05/20 02:39:22;;;;;;;;;1.75;1.75;;;;;21.69;46.32;101702.81;2460506;27;44672;-84
2022/05/20 02:40:33;;;;;;;;;1.75;1.75;;;;;21.70;46.38;101703.66;2459983;27;47033;-84
2022/05/20 02:41:45;;;;;;;;;1.75;1.75;;;;;21.71;46.47;101710.72;2460494;27;45351;-87
2022/05/20 02:42:56;;;;;;;;;3.25;1.00;;;;;21.72;46.42;101709.78;2460617;27;46436;-87
2022/05/20 02:44:06;;;;;;;;;2.00;1.50;;;;;21.73;46.09;101706.13;2459989;27;45488;-87
2022/05/20 02:45:17;;;;;;;;;2.25;2.25;;;;;21.72;46.24;101696.41;2452886;27;47904;-87
2022/05/20 02:46:27;;;;;;;;;2.25;1.50;;;;;21.73;46.64;101698.09;2452618;27;44819;-86
2022/05/20 02:47:38;;;;;;;;;1.00;1.00;;;;;21.73;46.09;101697.25;2452629;27;47971;-86
2022/05/20 02:48:48;;;;;;;;;2.00;2.00;;;;;21.73;46.41;101698.09;2452961;27;45260;-85
2022/05/20 02:50:00;;;;;;;;;2.00;2.00;;;;;21.73;46.46;101692.75;2452969;27;47098;-83
2022/05/20 02:51:11;;;;;;;;;1.00;1.00;;;;;21.74;46.39;101699.81;2460183;27;45226;-83
2022/05/20 02:52:21;;;;;;;;;2.00;2.00;;;;;21.75;46.46;101695.34;2460139;27;46235;-83
2022/05/20 02:53:32;;;;;;;;;2.00;2.00;;;;;21.74;46.45;101690.94;2460069;27;44649;-83
2022/05/20 02:54:42;;;;;;;;;1.25;1.25;;;;;21.75;46.69;101698.88;2460294;27;45630;-83
2022/05/20 02:55:52;;;;;;;;;2.00;2.00;;;;;21.74;46.73;101693.59;2460244;27;45613;-83
2022/05/20 02:57:03;;;;;;;;;1.00;1.00;;;;;21.74;46.86;101696.28;2460210;27;45405;-85
2022/05/20 03:04:12;;;;;;;;;3.00;2.00;;;;;21.68;46.43;101694.88;2460860;27;44591;-85
2022/05/20 03:05:23;;;;;;;;;2.50;2.00;;;;;21.69;46.35;101693.91;2459842;27;48066;-85
2022/05/20 03:06:33;;;;;;;;;2.25;2.00;;;;;21.68;46.78;101701.06;2459845;27;45353;-87
2022/05/20 03:07:43;;;;;;;;;2.00;2.00;;;;;21.69;47.15;101700.13;2460278;27;45329;-87
2022/05/20 03:08:54;;;;;;;;;1.75;1.75;;;;;21.69;47.02;101697.44;2460773;27;44708;-87
2022/05/20 03:10:05;;;;;;;;;3.25;1.50;;;;;21.72;46.81;101695.53;2460461;27;45565;-86
2022/05/20 03:11:16;;;;;;;;;2.00;2.00;;;;;21.74;47.03;101698.97;2460666;27;45455;-87
2022/05/20 03:12:27;;;;;;;;;3.25;1.25;;;;;21.73;46.84;101698.09;2460326;27;46307;-86
2022/05/20 03:13:37;;;;;;;;;1.75;1.00;;;;;21.72;47.16;101691.03;2459862;27;44682;-87
2022/05/20 03:14:48;;;;;;;;;2.50;2.00;;;;;21.72;46.78;101691.03;2460178;27;45315;-84
2022/05/20 03:15:58;;;;;;;;;1.00;1.00;;;;;21.71;46.76;101692.00;2460402;27;44789;-83
2022/05/20 03:17:09;;;;;;;;;1.50;1.50;;;;;21.72;46.82;101684.84;2459528;27;47213;-83
2022/05/20 03:18:19;;;;;;;;;1.75;1.00;;;;;21.73;47.03;101689.22;2460315;27;45192;-83
2022/05/20 03:19:31;;;;;;;;;2.50;2.50;;;;;21.72;46.78;101691.03;2462111;27;46051;-83
2022/05/20 03:20:41;;;;;;;;;1.00;1.00;;;;;21.71;46.77;101692.00;2462503;27;45439;-83
2022/05/20 03:21:52;;;;;;;;;2.00;2.00;;;;;21.70;47.19;101693.81;2462395;27;45229;-83
2022/05/20 03:23:02;;;;;;;;;0.25;0.00;;;;;21.71;47.23;101700.00;2462449;27;45210;-83
2022/05/20 03:24:13;;;;;;;;;1.25;1.25;;;;;21.71;46.75;101694.66;2461469;27;47983;-88
2022/05/20 03:25:23;;;;;;;;;3.25;2.00;;;;;21.71;46.70;101692.00;2454458;27;44711;-87
2022/05/20 03:26:34;;;;;;;;;4.75;2.00;;;;;21.70;47.04;101690.28;2454142;27;47792;-87
2022/05/20 03:27:44;;;;;;;;;3.00;2.00;;;;;21.70;46.39;101693.81;2454096;27;45360;-88
2022/05/20 03:28:57;;;;;;;;;3.50;2.00;;;;;21.72;46.67;101695.53;2454194;27;47942;-88
2022/05/20 03:30:10;;;;;;;;;4.00;3.00;;;;;21.70;46.68;101688.44;2464732;27;45244;-87
2022/05/20 03:31:21;;;;;;;;;3.75;2.00;;;;;21.70;46.85;101688.44;2468067;27;47370;-87
2022/05/20 03:32:31;;;;;;;;;3.25;2.00;;;;;21.70;47.10;101688.44;2462413;27;44595;-88
2022/05/20 03:33:42;;;;;;;;;1.50;1.50;;;;;21.72;47.14;101693.72;2462129;27;45282;-88
2022/05/20 03:34:55;;;;;;;;;2.00;1.75;;;;;21.69;47.10;101685.88;2462502;27;44598;-88
2022/05/20 03:36:09;;;;;;;;;5.25;3.00;;;;;21.70;46.82;101687.63;2460796;27;47100;-88
2022/05/20 03:37:19;;;;;;;;;2.50;2.00;;;;;21.72;46.92;101680.34;2454365;27;45270;-88
2022/05/20 03:38:30;;;;;;;;;2.00;2.00;;;;;21.71;46.94;101678.63;2461732;27;45445;-88
2022/05/20 03:39:40;;;;;;;;;1.25;1.25;;;;;21.70;47.32;101684.94;2462001;27;45183;-88
2022/05/20 03:40:51;;;;;;;;;2.00;2.00;;;;;21.70;47.32;101688.44;2461329;27;47484;-88
2022/05/20 03:42:02;;;;;;;;;4.25;2.25;;;;;21.69;46.84;101686.75;2461573;27;44683;-89
2022/05/20 03:43:13;;;;;;;;;3.00;2.00;;;;;21.66;46.96;101681.59;2454169;27;47112;-89
2022/05/20 03:44:24;;;;;;;;;2.25;1.75;;;;;21.68;47.05;101685.03;2454331;27;45517;-88
2022/05/20 03:45:34;;;;;;;;;5.75;1.75;;;;;21.65;47.17;101677.22;2461559;27;45552;-89
2022/05/20 03:46:54;;;;;;;;;3.25;2.75;;;;;21.68;47.14;101684.19;2461149;27;44753;-89
2022/05/20 03:48:04;;;;;;;;;2.00;2.00;;;;;21.66;46.99;101681.59;2454890;27;47678;-85
2022/05/20 03:49:16;;;;;;;;;3.00;2.00;;;;;21.66;47.39;101676.25;2461612;27;45263;-85
2022/05/20 03:50:26;;;;;;;;;2.00;1.75;;;;;21.67;46.79;101683.31;2461213;27;48319;-83
2022/05/20 03:51:37;;;;;;;;;3.00;2.00;;;;;21.67;47.40;101686.00;2461904;27;45304;-83
2022/05/20 03:52:48;;;;;;;;;1.75;1.75;;;;;21.66;47.01;101683.41;2462021;27;45429;-83
2022/05/20 03:53:58;;;;;;;;;2.00;1.00;;;;;21.65;47.18;101679.91;2462305;27;45207;-83
2022/05/20 03:55:09;;;;;;;;;1.00;1.00;;;;;21.64;47.50;101671.94;2462155;27;46397;-83
2022/05/20 03:56:19;;;;;;;;;1.50;1.50;;;;;21.61;47.53;101670.34;2461600;27;45536;-81
2022/05/20 03:57:30;;;;;;;;;1.25;1.25;;;;;21.62;47.71;101674.75;2460793;27;48221;-82
2022/05/20 03:58:40;;;;;;;;;2.00;1.50;;;;;21.62;47.61;101665.84;2461607;27;45313;-82
2022/05/20 03:59:50;;;;;;;;;2.50;2.50;;;;;21.61;47.47;101664.16;2461865;27;45468;-82
2022/05/20 04:02:30;;;;;;;;;4.00;2.00;;;;;21.59;47.84;101661.56;2461386;27;45830;-81
2022/05/20 04:03:42;;;;;;;;;2.00;2.00;;;;;21.61;47.66;101658.81;2461955;27;45202;-81
2022/05/20 04:04:53;;;;;;;;;0.00;0.00;;;;;21.60;47.43;101660.63;2462076;27;45634;-81
2022/05/20 04:06:03;;;;;;;;;5.75;2.75;;;;;21.59;47.62;101662.41;2461031;27;45199;-81
2022/05/20 04:07:20;;;;;;;;;3.50;3.00;;;;;21.59;47.36;101658.88;2453596;27;47941;-81
2022/05/20 04:08:30;;;;;;;;;4.00;2.00;;;;;21.57;47.41;101661.66;2458070;27;45310;-81
2022/05/20 04:09:41;;;;;;;;;3.00;3.00;;;;;21.55;47.81;101654.72;2459463;27;46130;-81
2022/05/20 04:10:52;;;;;;;;;2.25;2.25;;;;;21.55;47.96;101660.91;2461341;27;45239;-81
2022/05/20 04:12:07;;;;;;;;;3.00;3.00;;;;;21.58;48.20;101665.22;2461166;27;45587;-81
2022/05/20 04:13:17;;;;;;;;;2.75;2.00;;;;;21.56;47.99;101665.28;2452116;27;45281;-83
2022/05/20 04:14:28;;;;;;;;;2.00;2.00;;;;;21.57;47.78;101666.16;2458513;27;45357;-83
2022/05/20 04:15:38;;;;;;;;;4.00;4.00;;;;;21.55;47.93;101658.25;2461256;27;45424;-83
2022/05/20 04:16:54;;;;;;;;;3.25;2.25;;;;;21.56;48.13;101656.41;2453396;27;46764;-82
2022/05/20 04:18:05;;;;;;;;;4.75;3.00;;;;;21.53;47.77;101652.09;2461335;27;45301;-82
2022/05/20 04:19:15;;;;;;;;;2.75;2.75;;;;;21.53;47.77;101662.81;2461769;27;46484;-84
2022/05/20 04:20:26;;;;;;;;;0.00;0.00;;;;;21.51;47.90;101650.53;2462083;27;45277;-84
2022/05/20 04:21:36;;;;;;;;;3.50;2.25;;;;;21.52;48.00;101652.22;2461829;27;46204;-83
2022/05/20 04:22:47;;;;;;;;;2.00;2.00;;;;;21.51;47.52;101651.34;2461174;27;45445;-84
2022/05/20 04:23:57;;;;;;;;;5.00;4.00;;;;;21.51;47.97;101658.56;2461272;27;46367;-84
2022/05/20 04:25:08;;;;;;;;;2.75;2.75;;;;;21.50;47.85;101654.16;2462096;27;44675;-84
2022/05/20 04:26:18;;;;;;;;;4.00;3.00;;;;;21.49;48.07;101655.97;2461268;27;45546;-84
2022/05/20 04:27:29;;;;;;;;;3.00;2.00;;;;;21.49;48.01;101666.66;2461539;27;45238;-86
2022/05/20 04:28:40;;;;;;;;;2.00;2.00;;;;;21.50;48.19;101671.06;2460957;27;47153;-86
2022/05/20 04:29:50;;;;;;;;;3.00;2.00;;;;;21.50;48.22;101668.38;2460796;27;45394;-86
2022/05/20 04:31:03;;;;;;;;;2.50;2.50;;;;;21.51;48.07;101669.25;2461168;27;45654;-86
2022/05/20 04:32:14;;;;;;;;;2.50;2.25;;;;;21.50;48.04;101665.72;2461138;27;45321;-87
2022/05/20 04:33:25;;;;;;;;;3.00;3.00;;;;;21.50;47.87;101665.72;2453852;27;46424;-86
2022/05/20 04:34:35;;;;;;;;;5.25;2.00;;;;;21.48;47.98;101665.78;2454061;27;45331;-86
2022/05/20 04:35:46;;;;;;;;;3.50;3.00;;;;;21.50;47.97;101670.19;2453255;27;47677;-84
2022/05/20 04:36:57;;;;;;;;;2.00;2.00;;;;;21.51;47.96;101663.91;2460996;27;45372;-84
2022/05/20 04:38:07;;;;;;;;;2.75;2.25;;;;;21.52;47.95;101673.63;2453259;27;47180;-86
2022/05/20 04:39:19;;;;;;;;;2.75;2.00;;;;;21.53;48.01;101672.69;2461325;27;45299;-86
2022/05/20 04:40:30;;;;;;;;;3.50;2.00;;;;;21.53;47.96;101675.34;2461164;27;47840;-85
2022/05/20 04:47:37;;;;;;;;;5.25;3.25;;;;;21.59;47.86;101680.28;2461495;27;44870;-86
2022/05/20 04:48:47;;;;;;;;;4.00;3.50;;;;;21.58;47.97;101679.41;2460922;27;48057;-86
2022/05/20 04:49:58;;;;;;;;;3.25;3.00;;;;;21.59;48.03;101683.81;2453790;27;45180;-85
2022/05/20 04:51:09;;;;;;;;;4.00;3.50;;;;;21.61;48.19;101685.56;2453695;27;47997;-86
2022/05/20 04:52:20;;;;;;;;;3.75;2.75;;;;;21.60;48.42;101684.69;2453811;27;44587;-86
2022/05/20 04:54:59;;;;;;;;;2.00;2.00;;;;;21.67;48.79;101690.50;2461243;27;45318;-86
2022/05/20 04:56:10;;;;;;;;;3.50;2.25;;;;;21.68;48.58;101693.03;2460826;27;47491;-86
2022/05/20 04:57:22;;;;;;;;;3.00;3.00;;;;;21.70;49.17;101698.31;2453585;27;45311;-85
2022/05/20 04:58:33;;;;;;;;;3.00;3.00;;;;;21.73;48.82;101699.94;2451361;27;46447;-83
2022/05/20 04:59:43;;;;;;;;;6.00;4.25;;;;;21.73;48.13;101700.75;2457790;27;45513;-82
2022/05/20 05:00:58;;;;;;;;;4.00;3.50;;;;;21.75;48.35;101706.03;2461439;27;46262;-82
2022/05/20 05:02:08;;;;;;;;;3.75;2.50;;;;;21.75;48.12;101701.56;2461719;27;45254;-83
2022/05/20 05:03:18;;;;;;;;;4.50;3.00;;;;;21.75;48.29;101701.56;2460357;27;47353;-82
2022/05/20 05:04:29;;;;;;;;;3.00;3.00;;;;;21.76;48.32;101702.38;2461312;27;45255;-82
2022/05/20 05:05:39;;;;;;;;;3.25;2.00;;;;;21.75;48.71;101695.34;2461536;27;45285;-85
2022/05/20 05:06:50;;;;;;;;;3.50;2.25;;;;;21.76;49.32;101694.34;2460726;27;46814;-83
2022/05/20 05:08:00;;;;;;;;;5.50;2.25;;;;;21.78;48.55;101701.31;2460721;27;46565;-84
2022/05/20 05:09:11;;;;;;;;;2.50;2.00;;;;;21.80;49.19;101701.25;2460825;27;45257;-84
2022/05/20 05:10:25;;;;;;;;;4.75;2.50;;;;;21.81;48.12;101701.13;2453632;27;46979;-83
2022/05/20 05:11:39;;;;;;;;;2.75;2.75;;;;;21.83;48.83;101702.88;2461032;27;45282;-82
2022/05/20 05:12:51;;;;;;;;;5.25;2.00;;;;;21.81;48.63;101706.47;2459356;27;47614;-81
2022/05/20 05:14:01;;;;;;;;;2.00;2.00;;;;;21.79;49.02;101700.38;2460682;27;45254;-81
2022/05/20 05:15:13;;;;;;;;;3.00;3.00;;;;;21.80;48.26;101704.75;2460950;27;46086;-81
2022/05/20 05:16:24;;;;;;;;;2.75;2.75;;;;;21.84;48.84;101707.25;2461520;27;45294;-81
2022/05/20 05:19:03;;;;;;;;;3.75;3.75;;;;;21.87;48.64;101704.41;2461465;27;45294;-83
2022/05/20 05:20:17;;;;;;;;;2.25;2.25;;;;;21.87;48.59;101696.38;2461428;27;46592;-83
2022/05/20 05:21:27;;;;;;;;;2.75;2.00;;;;;21.87;48.32;101694.56;2461477;27;45278;-84
2022/05/20 05:22:38;;;;;;;;;3.00;3.00;;;;;21.88;48.61;101692.72;2459990;27;47251;-87
2022/05/20 05:23:48;;;;;;;;;3.75;2.75;;;;;21.88;48.25;101687.38;2461022;27;45188;-87
2022/05/20 05:24:58;;;;;;;;;2.25;2.25;;;;;21.87;48.47;101694.56;2461434;27;46216;-88
2022/05/20 05:26:09;;;;;;;;;7.75;4.50;;;;;21.84;48.13;101685.84;2460951;27;45227;-82
2022/05/20 05:27:19;;;;;;;;;4.00;2.50;;;;;21.83;48.36;101687.63;2460836;27;45560;-82
2022/05/20 05:28:30;;;;;;;;;3.75;3.75;;;;;21.84;48.43;101700.06;2461175;27;45280;-83
2022/05/20 05:29:40;;;;;;;;;4.00;2.75;;;;;21.83;48.12;101694.84;2461197;27;46255;-83
2022/05/20 05:30:51;;;;;;;;;2.25;2.25;;;;;21.85;48.58;101695.59;2461412;27;44537;-83
2022/05/20 05:32:02;;;;;;;;;4.00;4.00;;;;;21.85;48.87;101690.25;2460337;27;47973;-84
2022/05/20 05:33:13;;;;;;;;;3.25;2.75;;;;;21.85;48.39;101693.78;2452486;27;45275;-88
2022/05/20 05:34:23;;;;;;;;;6.00;2.00;;;;;21.84;48.94;101692.03;2460492;27;46456;-87
2022/05/20 05:35:34;;;;;;;;;3.50;3.00;;;;;21.86;48.78;101691.94;2461490;27;44613;-87
2022/05/20 05:36:44;;;;;;;;;3.50;3.00;;;;;21.86;48.69;101683.91;2460195;27;48677;-85
2022/05/20 05:37:55;;;;;;;;;4.75;4.50;;;;;21.85;48.79;101688.44;2460858;27;44723;-86
2022/05/20 05:39:05;;;;;;;;;2.00;2.00;;;;;21.86;49.04;101682.13;2460967;27;45337;-86
2022/05/20 05:40:28;;;;;;;;;3.50;3.00;;;;;21.86;49.43;101678.56;2460443;27;45353;-88
2022/05/20 05:41:38;;;;;;;;;3.75;3.00;;;;;21.87;49.36;101674.97;2456502;27;45316;-87
2022/05/20 05:42:49;;;;;;;;;2.00;2.00;;;;;21.87;48.80;101673.16;2455762;27;45232;-87
2022/05/20 05:44:03;;;;;;;;;4.00;3.00;;;;;21.88;48.68;101673.97;2460294;27;47000;-86
2022/05/20 05:45:18;;;;;;;;;4.25;4.25;;;;;21.85;48.39;101658.13;2460974;27;45341;-87
2022/05/20 05:46:28;;;;;;;;;4.50;3.25;;;;;21.84;48.55;101645.69;2461055;27;46329;-86
2022/05/20 05:47:39;;;;;;;;;2.75;2.75;;;;;21.81;48.63;101636.91;2470443;27;45278;-86
2022/05/20 05:48:49;;;;;;;;;3.00;2.25;;;;;21.80;48.35;101623.66;2460095;27;48091;-88
2022/05/20 05:50:00;;;;;;;;;4.75;3.00;;;;;21.79;48.60;101632.63;2453353;27;44619;-90
2022/05/20 05:51:10;;;;;;;;;4.25;3.75;;;;;21.76;49.00;101628.34;2453458;27;47147;-89
2022/05/20 05:52:20;;;;;;;;;5.00;3.00;;;;;21.76;48.84;101623.00;2459972;27;45704;-89
2022/05/20 05:53:31;;;;;;;;;4.00;3.00;;;;;21.75;49.22;101626.66;2460527;27;45203;-87
2022/05/20 05:54:41;;;;;;;;;6.00;2.75;;;;;21.75;49.16;101632.00;2461337;27;44563;-87
2022/05/20 05:56:01;;;;;;;;;4.00;4.00;;;;;21.77;49.06;101645.25;2461058;27;45257;-88